sensor_id;sensor_type;location;lat;lon;timestamp;P1;durP1;ratioP1;P2;durP2;ratioP2
38937;SDS011;24727;51.974;20.868;2024-03-29T00:00:55;8.90;;;4.25;;
38937;SDS011;24727;51.974;20.868;2024-03-29T00:03:21;9.95;;;4.68;;
38937;SDS011;24727;51.974;20.868;2024-03-29T00:05:47;7.90;;;4.03;;
38937;SDS011;24727;51.974;20.868;2024-03-29T00:08:13;9.75;;;3.90;;
38937;SDS011;24727;51.974;20.868;2024-03-29T00:10:39;7.70;;;3.78;;
38937;SDS011;24727;51.974;20.868;2024-03-29T00:13:05;7.32;;;4.30;;
38937;SDS011;24727;51.974;20.868;2024-03-29T00:15:50;7.93;;;4.25;;
38937;SDS011;24727;51.974;20.868;2024-03-29T00:18:16;6.68;;;4.05;;
38937;SDS011;24727;51.974;20.868;2024-03-29T00:20:42;6.30;;;3.50;;
38937;SDS011;24727;51.974;20.868;2024-03-29T00:23:07;6.35;;;3.70;;
38937;SDS011;24727;51.974;20.868;2024-03-29T00:25:33;10.25;;;3.80;;
38937;SDS011;24727;51.974;20.868;2024-03-29T00:27:59;5.68;;;3.30;;
38937;SDS011;24727;51.974;20.868;2024-03-29T00:30:26;5.68;;;3.22;;
38937;SDS011;24727;51.974;20.868;2024-03-29T00:32:52;5.32;;;3.00;;
38937;SDS011;24727;51.974;20.868;2024-03-29T00:35:18;9.27;;;3.42;;
38937;SDS011;24727;51.974;20.868;2024-03-29T00:37:45;6.25;;;2.88;;
38937;SDS011;24727;51.974;20.868;2024-03-29T00:40:11;4.30;;;2.63;;
38937;SDS011;24727;51.974;20.868;2024-03-29T00:42:37;5.20;;;2.80;;
38937;SDS011;24727;51.974;20.868;2024-03-29T00:45:03;6.22;;;3.08;;
38937;SDS011;24727;51.974;20.868;2024-03-29T00:47:29;5.15;;;3.15;;
38937;SDS011;24727;51.974;20.868;2024-03-29T00:49:55;7.50;;;2.92;;
38937;SDS011;24727;51.974;20.868;2024-03-29T00:52:21;4.55;;;2.80;;
38937;SDS011;24727;51.974;20.868;2024-03-29T00:54:46;7.07;;;2.80;;
38937;SDS011;24727;51.974;20.868;2024-03-29T00:57:12;7.15;;;2.50;;
38937;SDS011;24727;51.974;20.868;2024-03-29T00:59:40;3.95;;;2.22;;
38937;SDS011;24727;51.974;20.868;2024-03-29T01:02:08;4.07;;;2.38;;
38937;SDS011;24727;51.974;20.868;2024-03-29T01:04:34;2.65;;;1.83;;
38937;SDS011;24727;51.974;20.868;2024-03-29T01:07:01;4.30;;;2.60;;
38937;SDS011;24727;51.974;20.868;2024-03-29T01:09:26;3.65;;;2.30;;
38937;SDS011;24727;51.974;20.868;2024-03-29T01:11:52;8.15;;;2.83;;
38937;SDS011;24727;51.974;20.868;2024-03-29T01:14:18;2.85;;;1.80;;
38937;SDS011;24727;51.974;20.868;2024-03-29T01:16:44;1.85;;;1.30;;
38937;SDS011;24727;51.974;20.868;2024-03-29T01:19:10;3.17;;;1.10;;
38937;SDS011;24727;51.974;20.868;2024-03-29T01:21:36;4.13;;;1.30;;
38937;SDS011;24727;51.974;20.868;2024-03-29T01:24:02;3.33;;;0.90;;
38937;SDS011;24727;51.974;20.868;2024-03-29T01:26:30;4.10;;;1.20;;
38937;SDS011;24727;51.974;20.868;2024-03-29T01:28:56;1.92;;;1.02;;
38937;SDS011;24727;51.974;20.868;2024-03-29T01:31:22;1.95;;;0.98;;
38937;SDS011;24727;51.974;20.868;2024-03-29T01:33:49;1.75;;;0.82;;
38937;SDS011;24727;51.974;20.868;2024-03-29T01:36:15;5.18;;;0.85;;
38937;SDS011;24727;51.974;20.868;2024-03-29T01:38:41;1.40;;;0.80;;
38937;SDS011;24727;51.974;20.868;2024-03-29T01:41:07;1.73;;;0.70;;
38937;SDS011;24727;51.974;20.868;2024-03-29T01:43:33;1.67;;;0.70;;
38937;SDS011;24727;51.974;20.868;2024-03-29T01:45:59;2.88;;;1.05;;
38937;SDS011;24727;51.974;20.868;2024-03-29T01:48:25;2.40;;;1.15;;
38937;SDS011;24727;51.974;20.868;2024-03-29T01:50:56;3.25;;;0.90;;
38937;SDS011;24727;51.974;20.868;2024-03-29T01:53:23;1.33;;;0.80;;
38937;SDS011;24727;51.974;20.868;2024-03-29T01:55:50;1.17;;;0.50;;
38937;SDS011;24727;51.974;20.868;2024-03-29T01:58:18;1.73;;;0.80;;
38937;SDS011;24727;51.974;20.868;2024-03-29T02:00:50;0.80;;;0.50;;
38937;SDS011;24727;51.974;20.868;2024-03-29T02:03:22;1.52;;;0.65;;
38937;SDS011;24727;51.974;20.868;2024-03-29T02:05:48;1.30;;;0.90;;
38937;SDS011;24727;51.974;20.868;2024-03-29T02:08:15;1.20;;;0.70;;
38937;SDS011;24727;51.974;20.868;2024-03-29T02:10:41;2.10;;;0.70;;
38937;SDS011;24727;51.974;20.868;2024-03-29T02:13:09;0.85;;;0.60;;
38937;SDS011;24727;51.974;20.868;2024-03-29T02:15:35;1.27;;;0.40;;
38937;SDS011;24727;51.974;20.868;2024-03-29T02:18:01;1.02;;;0.45;;
38937;SDS011;24727;51.974;20.868;2024-03-29T02:20:27;1.15;;;0.50;;
38937;SDS011;24727;51.974;20.868;2024-03-29T02:22:55;1.23;;;0.52;;
38937;SDS011;24727;51.974;20.868;2024-03-29T02:25:32;1.77;;;0.70;;
38937;SDS011;24727;51.974;20.868;2024-03-29T02:27:59;1.05;;;0.63;;
38937;SDS011;24727;51.974;20.868;2024-03-29T02:30:28;2.78;;;1.08;;
38937;SDS011;24727;51.974;20.868;2024-03-29T02:32:55;2.20;;;0.98;;
38937;SDS011;24727;51.974;20.868;2024-03-29T02:35:22;3.33;;;0.93;;
38937;SDS011;24727;51.974;20.868;2024-03-29T02:37:48;2.40;;;1.20;;
38937;SDS011;24727;51.974;20.868;2024-03-29T02:40:13;5.47;;;1.60;;
38937;SDS011;24727;51.974;20.868;2024-03-29T02:42:39;2.70;;;1.00;;
38937;SDS011;24727;51.974;20.868;2024-03-29T02:45:05;1.63;;;1.20;;
38937;SDS011;24727;51.974;20.868;2024-03-29T02:47:32;2.35;;;1.17;;
38937;SDS011;24727;51.974;20.868;2024-03-29T02:49:58;2.08;;;1.30;;
38937;SDS011;24727;51.974;20.868;2024-03-29T02:52:24;2.25;;;1.20;;
38937;SDS011;24727;51.974;20.868;2024-03-29T02:54:50;2.53;;;1.23;;
38937;SDS011;24727;51.974;20.868;2024-03-29T02:57:16;3.97;;;1.40;;
38937;SDS011;24727;51.974;20.868;2024-03-29T02:59:42;2.42;;;1.42;;
38937;SDS011;24727;51.974;20.868;2024-03-29T03:02:08;2.05;;;1.23;;
38937;SDS011;24727;51.974;20.868;2024-03-29T03:04:34;3.15;;;1.80;;
38937;SDS011;24727;51.974;20.868;2024-03-29T03:07:00;9.82;;;1.60;;
38937;SDS011;24727;51.974;20.868;2024-03-29T03:09:44;2.90;;;1.70;;
38937;SDS011;24727;51.974;20.868;2024-03-29T03:12:29;3.60;;;1.67;;
38937;SDS011;24727;51.974;20.868;2024-03-29T03:14:56;4.40;;;1.63;;
38937;SDS011;24727;51.974;20.868;2024-03-29T03:17:23;1.83;;;1.33;;
38937;SDS011;24727;51.974;20.868;2024-03-29T03:19:53;3.17;;;1.88;;
38937;SDS011;24727;51.974;20.868;2024-03-29T03:22:19;2.10;;;1.25;;
38937;SDS011;24727;51.974;20.868;2024-03-29T03:24:45;2.70;;;1.42;;
38937;SDS011;24727;51.974;20.868;2024-03-29T03:27:11;1.63;;;1.13;;
38937;SDS011;24727;51.974;20.868;2024-03-29T03:29:37;2.58;;;1.55;;
38937;SDS011;24727;51.974;20.868;2024-03-29T03:32:04;3.67;;;1.45;;
38937;SDS011;24727;51.974;20.868;2024-03-29T03:34:30;2.63;;;1.50;;
38937;SDS011;24727;51.974;20.868;2024-03-29T03:36:57;2.85;;;1.50;;
38937;SDS011;24727;51.974;20.868;2024-03-29T03:39:22;1.70;;;0.90;;
38937;SDS011;24727;51.974;20.868;2024-03-29T03:41:48;2.38;;;1.20;;
38937;SDS011;24727;51.974;20.868;2024-03-29T03:44:15;2.15;;;1.02;;
38937;SDS011;24727;51.974;20.868;2024-03-29T03:46:41;2.30;;;1.08;;
38937;SDS011;24727;51.974;20.868;2024-03-29T03:49:07;5.65;;;1.08;;
38937;SDS011;24727;51.974;20.868;2024-03-29T03:51:33;2.03;;;1.08;;
38937;SDS011;24727;51.974;20.868;2024-03-29T03:53:59;1.75;;;1.10;;
38937;SDS011;24727;51.974;20.868;2024-03-29T03:56:25;1.90;;;1.00;;
38937;SDS011;24727;51.974;20.868;2024-03-29T03:58:52;2.70;;;1.25;;
38937;SDS011;24727;51.974;20.868;2024-03-29T04:01:17;4.30;;;1.80;;
38937;SDS011;24727;51.974;20.868;2024-03-29T04:03:43;2.53;;;1.25;;
38937;SDS011;24727;51.974;20.868;2024-03-29T04:06:09;1.23;;;0.98;;
38937;SDS011;24727;51.974;20.868;2024-03-29T04:08:35;1.70;;;0.82;;
38937;SDS011;24727;51.974;20.868;2024-03-29T04:11:04;3.35;;;1.42;;
38937;SDS011;24727;51.974;20.868;2024-03-29T04:13:30;2.75;;;1.17;;
38937;SDS011;24727;51.974;20.868;2024-03-29T04:16:02;2.60;;;1.02;;
38937;SDS011;24727;51.974;20.868;2024-03-29T04:18:28;1.80;;;0.80;;
38937;SDS011;24727;51.974;20.868;2024-03-29T04:20:57;3.70;;;1.00;;
38937;SDS011;24727;51.974;20.868;2024-03-29T04:23:27;1.58;;;0.85;;
38937;SDS011;24727;51.974;20.868;2024-03-29T04:25:53;1.80;;;0.90;;
38937;SDS011;24727;51.974;20.868;2024-03-29T04:28:20;1.58;;;0.75;;
38937;SDS011;24727;51.974;20.868;2024-03-29T04:33:21;1.98;;;1.20;;
38937;SDS011;24727;51.974;20.868;2024-03-29T04:35:58;2.55;;;1.08;;
38937;SDS011;24727;51.974;20.868;2024-03-29T04:38:25;4.25;;;1.08;;
38937;SDS011;24727;51.974;20.868;2024-03-29T04:40:52;4.45;;;1.23;;
38937;SDS011;24727;51.974;20.868;2024-03-29T04:43:21;2.03;;;1.02;;
38937;SDS011;24727;51.974;20.868;2024-03-29T04:45:47;2.50;;;1.10;;
38937;SDS011;24727;51.974;20.868;2024-03-29T04:48:13;1.75;;;0.93;;
38937;SDS011;24727;51.974;20.868;2024-03-29T04:50:39;1.85;;;0.90;;
38937;SDS011;24727;51.974;20.868;2024-03-29T04:53:07;1.67;;;0.98;;
38937;SDS011;24727;51.974;20.868;2024-03-29T04:55:34;2.15;;;1.20;;
38937;SDS011;24727;51.974;20.868;2024-03-29T04:58:00;2.05;;;1.27;;
38937;SDS011;24727;51.974;20.868;2024-03-29T05:00:27;1.63;;;1.17;;
38937;SDS011;24727;51.974;20.868;2024-03-29T05:02:53;3.25;;;1.00;;
38937;SDS011;24727;51.974;20.868;2024-03-29T05:05:19;1.50;;;1.17;;
38937;SDS011;24727;51.974;20.868;2024-03-29T05:07:45;1.92;;;1.02;;
38937;SDS011;24727;51.974;20.868;2024-03-29T05:10:11;3.00;;;1.10;;
38937;SDS011;24727;51.974;20.868;2024-03-29T05:12:37;1.85;;;0.93;;
38937;SDS011;24727;51.974;20.868;2024-03-29T05:15:03;1.55;;;0.90;;
38937;SDS011;24727;51.974;20.868;2024-03-29T05:17:29;1.90;;;1.10;;
38937;SDS011;24727;51.974;20.868;2024-03-29T05:19:55;1.85;;;0.93;;
38937;SDS011;24727;51.974;20.868;2024-03-29T05:22:21;2.65;;;1.10;;
38937;SDS011;24727;51.974;20.868;2024-03-29T05:24:47;2.00;;;1.10;;
38937;SDS011;24727;51.974;20.868;2024-03-29T05:27:13;3.78;;;1.20;;
38937;SDS011;24727;51.974;20.868;2024-03-29T05:29:39;2.58;;;1.25;;
38937;SDS011;24727;51.974;20.868;2024-03-29T05:32:06;3.05;;;1.40;;
38937;SDS011;24727;51.974;20.868;2024-03-29T05:34:32;2.72;;;1.30;;
38937;SDS011;24727;51.974;20.868;2024-03-29T05:36:58;2.08;;;1.45;;
38937;SDS011;24727;51.974;20.868;2024-03-29T05:39:24;2.85;;;1.40;;
38937;SDS011;24727;51.974;20.868;2024-03-29T05:41:49;4.70;;;1.52;;
38937;SDS011;24727;51.974;20.868;2024-03-29T05:44:15;7.57;;;1.10;;
38937;SDS011;24727;51.974;20.868;2024-03-29T05:46:42;1.58;;;1.00;;
38937;SDS011;24727;51.974;20.868;2024-03-29T05:49:08;1.85;;;1.10;;
38937;SDS011;24727;51.974;20.868;2024-03-29T05:51:34;2.03;;;1.08;;
38937;SDS011;24727;51.974;20.868;2024-03-29T05:54:00;2.20;;;0.93;;
38937;SDS011;24727;51.974;20.868;2024-03-29T05:56:28;3.03;;;0.98;;
38937;SDS011;24727;51.974;20.868;2024-03-29T05:58:55;1.77;;;1.23;;
38937;SDS011;24727;51.974;20.868;2024-03-29T06:01:21;3.58;;;1.17;;
38937;SDS011;24727;51.974;20.868;2024-03-29T06:03:48;2.45;;;1.10;;
38937;SDS011;24727;51.974;20.868;2024-03-29T06:06:18;3.13;;;1.17;;
38937;SDS011;24727;51.974;20.868;2024-03-29T06:08:47;2.30;;;1.00;;
38937;SDS011;24727;51.974;20.868;2024-03-29T06:11:13;5.50;;;0.90;;
38937;SDS011;24727;51.974;20.868;2024-03-29T06:13:38;2.33;;;1.10;;
38937;SDS011;24727;51.974;20.868;2024-03-29T06:16:25;3.85;;;1.10;;
38937;SDS011;24727;51.974;20.868;2024-03-29T06:19:10;4.72;;;1.13;;
38937;SDS011;24727;51.974;20.868;2024-03-29T06:21:36;4.18;;;1.38;;
38937;SDS011;24727;51.974;20.868;2024-03-29T06:26:32;1.77;;;1.20;;
38937;SDS011;24727;51.974;20.868;2024-03-29T06:28:59;2.40;;;1.33;;
38937;SDS011;24727;51.974;20.868;2024-03-29T06:31:26;4.10;;;1.30;;
38937;SDS011;24727;51.974;20.868;2024-03-29T06:33:52;2.92;;;1.60;;
38937;SDS011;24727;51.974;20.868;2024-03-29T06:36:18;4.13;;;1.50;;
38937;SDS011;24727;51.974;20.868;2024-03-29T06:38:44;2.97;;;1.38;;
38937;SDS011;24727;51.974;20.868;2024-03-29T06:41:10;1.90;;;1.30;;
38937;SDS011;24727;51.974;20.868;2024-03-29T06:43:36;4.10;;;1.60;;
38937;SDS011;24727;51.974;20.868;2024-03-29T06:46:02;1.83;;;1.20;;
38937;SDS011;24727;51.974;20.868;2024-03-29T06:48:29;2.80;;;1.60;;
38937;SDS011;24727;51.974;20.868;2024-03-29T06:50:58;2.38;;;1.15;;
38937;SDS011;24727;51.974;20.868;2024-03-29T06:53:24;4.43;;;1.50;;
38937;SDS011;24727;51.974;20.868;2024-03-29T06:55:50;2.17;;;1.23;;
38937;SDS011;24727;51.974;20.868;2024-03-29T06:58:16;3.67;;;1.60;;
38937;SDS011;24727;51.974;20.868;2024-03-29T07:00:46;4.00;;;1.83;;
38937;SDS011;24727;51.974;20.868;2024-03-29T07:03:14;3.15;;;1.80;;
38937;SDS011;24727;51.974;20.868;2024-03-29T07:05:42;2.17;;;1.50;;
38937;SDS011;24727;51.974;20.868;2024-03-29T07:08:08;5.15;;;1.52;;
38937;SDS011;24727;51.974;20.868;2024-03-29T07:10:33;3.28;;;1.52;;
38937;SDS011;24727;51.974;20.868;2024-03-29T07:13:00;1.77;;;1.50;;
38937;SDS011;24727;51.974;20.868;2024-03-29T07:15:26;4.45;;;1.85;;
38937;SDS011;24727;51.974;20.868;2024-03-29T07:17:52;2.92;;;1.60;;
38937;SDS011;24727;51.974;20.868;2024-03-29T07:20:17;2.58;;;1.55;;
38937;SDS011;24727;51.974;20.868;2024-03-29T07:22:43;2.42;;;1.40;;
38937;SDS011;24727;51.974;20.868;2024-03-29T07:25:11;4.10;;;1.30;;
38937;SDS011;24727;51.974;20.868;2024-03-29T07:30:53;2.08;;;1.38;;
38937;SDS011;24727;51.974;20.868;2024-03-29T07:33:19;4.20;;;1.98;;
38937;SDS011;24727;51.974;20.868;2024-03-29T07:36:24;2.90;;;1.38;;
38937;SDS011;24727;51.974;20.868;2024-03-29T07:38:52;2.97;;;1.55;;
38937;SDS011;24727;51.974;20.868;2024-03-29T07:41:18;3.15;;;1.50;;
38937;SDS011;24727;51.974;20.868;2024-03-29T07:43:59;2.33;;;1.33;;
38937;SDS011;24727;51.974;20.868;2024-03-29T07:46:33;1.95;;;1.30;;
38937;SDS011;24727;51.974;20.868;2024-03-29T07:49:12;2.80;;;1.48;;
38937;SDS011;24727;51.974;20.868;2024-03-29T07:51:39;3.60;;;1.30;;
38937;SDS011;24727;51.974;20.868;2024-03-29T07:54:05;3.42;;;1.55;;
38937;SDS011;24727;51.974;20.868;2024-03-29T07:56:31;2.50;;;1.30;;
38937;SDS011;24727;51.974;20.868;2024-03-29T07:58:57;1.85;;;1.05;;
38937;SDS011;24727;51.974;20.868;2024-03-29T08:01:23;1.90;;;1.27;;
38937;SDS011;24727;51.974;20.868;2024-03-29T08:04:08;2.47;;;1.25;;
38937;SDS011;24727;51.974;20.868;2024-03-29T08:06:40;1.70;;;1.23;;
38937;SDS011;24727;51.974;20.868;2024-03-29T08:09:06;2.30;;;1.08;;
38937;SDS011;24727;51.974;20.868;2024-03-29T08:14:34;2.05;;;1.10;;
38937;SDS011;24727;51.974;20.868;2024-03-29T08:17:00;2.40;;;1.63;;
38937;SDS011;24727;51.974;20.868;2024-03-29T08:19:29;4.35;;;1.52;;
38937;SDS011;24727;51.974;20.868;2024-03-29T08:21:56;3.03;;;1.50;;
38937;SDS011;24727;51.974;20.868;2024-03-29T08:24:31;2.70;;;1.55;;
38937;SDS011;24727;51.974;20.868;2024-03-29T08:26:59;3.35;;;1.42;;
38937;SDS011;24727;51.974;20.868;2024-03-29T08:29:27;2.65;;;1.50;;
38937;SDS011;24727;51.974;20.868;2024-03-29T08:32:02;2.33;;;1.70;;
38937;SDS011;24727;51.974;20.868;2024-03-29T08:34:29;1.95;;;1.50;;
38937;SDS011;24727;51.974;20.868;2024-03-29T08:37:00;2.65;;;1.67;;
38937;SDS011;24727;51.974;20.868;2024-03-29T08:39:28;2.40;;;1.60;;
38937;SDS011;24727;51.974;20.868;2024-03-29T08:47:18;3.40;;;2.38;;
38937;SDS011;24727;51.974;20.868;2024-03-29T08:49:44;3.88;;;2.55;;
38937;SDS011;24727;51.974;20.868;2024-03-29T08:52:10;5.30;;;2.53;;
38937;SDS011;24727;51.974;20.868;2024-03-29T08:54:36;5.88;;;2.80;;
38937;SDS011;24727;51.974;20.868;2024-03-29T08:57:02;3.38;;;2.33;;
38937;SDS011;24727;51.974;20.868;2024-03-29T08:59:28;5.88;;;3.20;;
38937;SDS011;24727;51.974;20.868;2024-03-29T09:02:03;4.38;;;2.22;;
38937;SDS011;24727;51.974;20.868;2024-03-29T09:04:30;2.53;;;2.28;;
38937;SDS011;24727;51.974;20.868;2024-03-29T09:06:55;4.82;;;2.80;;
38937;SDS011;24727;51.974;20.868;2024-03-29T09:09:21;3.28;;;2.45;;
38937;SDS011;24727;51.974;20.868;2024-03-29T09:11:47;6.10;;;2.33;;
38937;SDS011;24727;51.974;20.868;2024-03-29T09:14:13;5.65;;;2.53;;
38937;SDS011;24727;51.974;20.868;2024-03-29T09:16:40;2.47;;;2.00;;
38937;SDS011;24727;51.974;20.868;2024-03-29T09:19:06;2.38;;;1.52;;
38937;SDS011;24727;51.974;20.868;2024-03-29T09:21:56;2.40;;;1.70;;
38937;SDS011;24727;51.974;20.868;2024-03-29T09:24:22;5.10;;;2.20;;
38937;SDS011;24727;51.974;20.868;2024-03-29T09:26:50;4.03;;;2.03;;
38937;SDS011;24727;51.974;20.868;2024-03-29T09:29:16;5.40;;;2.38;;
38937;SDS011;24727;51.974;20.868;2024-03-29T09:31:45;3.08;;;2.00;;
38937;SDS011;24727;51.974;20.868;2024-03-29T09:34:11;2.50;;;2.05;;
38937;SDS011;24727;51.974;20.868;2024-03-29T09:36:38;4.97;;;2.10;;
38937;SDS011;24727;51.974;20.868;2024-03-29T09:39:25;3.08;;;1.98;;
38937;SDS011;24727;51.974;20.868;2024-03-29T09:41:51;2.97;;;1.88;;
38937;SDS011;24727;51.974;20.868;2024-03-29T09:44:34;2.63;;;1.55;;
38937;SDS011;24727;51.974;20.868;2024-03-29T09:47:02;4.03;;;2.55;;
38937;SDS011;24727;51.974;20.868;2024-03-29T09:49:32;2.90;;;2.20;;
38937;SDS011;24727;51.974;20.868;2024-03-29T09:51:59;4.65;;;2.40;;
38937;SDS011;24727;51.974;20.868;2024-03-29T09:54:28;2.20;;;1.15;;
38937;SDS011;24727;51.974;20.868;2024-03-29T09:56:55;4.70;;;1.40;;
38937;SDS011;24727;51.974;20.868;2024-03-29T09:59:22;2.13;;;1.23;;
38937;SDS011;24727;51.974;20.868;2024-03-29T10:01:55;2.90;;;1.50;;
38937;SDS011;24727;51.974;20.868;2024-03-29T10:04:22;1.90;;;0.90;;
38937;SDS011;24727;51.974;20.868;2024-03-29T10:06:49;3.72;;;1.60;;
38937;SDS011;24727;51.974;20.868;2024-03-29T10:09:17;3.85;;;1.23;;
38937;SDS011;24727;51.974;20.868;2024-03-29T10:11:44;2.72;;;1.30;;
38937;SDS011;24727;51.974;20.868;2024-03-29T10:14:10;2.22;;;1.30;;
38937;SDS011;24727;51.974;20.868;2024-03-29T10:16:36;3.92;;;1.20;;
38937;SDS011;24727;51.974;20.868;2024-03-29T10:19:03;3.05;;;1.30;;
38937;SDS011;24727;51.974;20.868;2024-03-29T10:21:29;3.63;;;1.50;;
38937;SDS011;24727;51.974;20.868;2024-03-29T10:23:55;2.22;;;1.10;;
38937;SDS011;24727;51.974;20.868;2024-03-29T10:26:21;1.75;;;1.08;;
38937;SDS011;24727;51.974;20.868;2024-03-29T10:28:47;1.50;;;1.05;;
38937;SDS011;24727;51.974;20.868;2024-03-29T10:31:14;2.83;;;1.80;;
38937;SDS011;24727;51.974;20.868;2024-03-29T10:36:43;1.77;;;1.15;;
38937;SDS011;24727;51.974;20.868;2024-03-29T10:39:09;3.50;;;1.15;;
38937;SDS011;24727;51.974;20.868;2024-03-29T10:41:38;1.85;;;1.20;;
38937;SDS011;24727;51.974;20.868;2024-03-29T10:46:38;1.33;;;0.63;;
38937;SDS011;24727;51.974;20.868;2024-03-29T10:49:09;1.15;;;0.70;;
38937;SDS011;24727;51.974;20.868;2024-03-29T10:51:39;1.58;;;1.10;;
38937;SDS011;24727;51.974;20.868;2024-03-29T10:54:08;2.75;;;0.95;;
38937;SDS011;24727;51.974;20.868;2024-03-29T10:56:35;1.85;;;0.80;;
38937;SDS011;24727;51.974;20.868;2024-03-29T10:59:03;2.38;;;0.90;;
38937;SDS011;24727;51.974;20.868;2024-03-29T11:01:39;2.95;;;1.00;;
38937;SDS011;24727;51.974;20.868;2024-03-29T11:04:13;1.70;;;0.90;;
38937;SDS011;24727;51.974;20.868;2024-03-29T11:06:47;2.33;;;0.82;;
38937;SDS011;24727;51.974;20.868;2024-03-29T11:09:17;2.97;;;1.15;;
38937;SDS011;24727;51.974;20.868;2024-03-29T11:11:46;2.03;;;1.00;;
38937;SDS011;24727;51.974;20.868;2024-03-29T11:14:18;1.35;;;0.80;;
38937;SDS011;24727;51.974;20.868;2024-03-29T11:16:49;2.58;;;0.80;;
38937;SDS011;24727;51.974;20.868;2024-03-29T11:19:20;1.00;;;0.70;;
38937;SDS011;24727;51.974;20.868;2024-03-29T11:21:46;2.55;;;0.77;;
38937;SDS011;24727;51.974;20.868;2024-03-29T11:24:16;3.00;;;0.82;;
38937;SDS011;24727;51.974;20.868;2024-03-29T11:26:45;1.40;;;0.68;;
38937;SDS011;24727;51.974;20.868;2024-03-29T11:29:20;2.20;;;0.77;;
38937;SDS011;24727;51.974;20.868;2024-03-29T11:31:48;4.15;;;1.00;;
38937;SDS011;24727;51.974;20.868;2024-03-29T11:34:22;1.83;;;0.68;;
38937;SDS011;24727;51.974;20.868;2024-03-29T11:36:47;2.10;;;0.52;;
38937;SDS011;24727;51.974;20.868;2024-03-29T11:39:20;1.35;;;0.70;;
38937;SDS011;24727;51.974;20.868;2024-03-29T11:41:47;4.53;;;0.90;;
38937;SDS011;24727;51.974;20.868;2024-03-29T11:44:13;1.40;;;0.73;;
38937;SDS011;24727;51.974;20.868;2024-03-29T11:46:39;1.30;;;1.00;;
38937;SDS011;24727;51.974;20.868;2024-03-29T11:49:06;3.53;;;0.60;;
38937;SDS011;24727;51.974;20.868;2024-03-29T11:51:32;2.95;;;0.80;;
38937;SDS011;24727;51.974;20.868;2024-03-29T11:54:01;1.73;;;0.60;;
38937;SDS011;24727;51.974;20.868;2024-03-29T11:56:27;1.35;;;0.52;;
38937;SDS011;24727;51.974;20.868;2024-03-29T11:58:53;2.10;;;0.70;;
38937;SDS011;24727;51.974;20.868;2024-03-29T12:01:24;2.60;;;1.60;;
38937;SDS011;24727;51.974;20.868;2024-03-29T12:03:54;1.05;;;0.70;;
38937;SDS011;24727;51.974;20.868;2024-03-29T12:06:20;3.85;;;0.60;;
38937;SDS011;24727;51.974;20.868;2024-03-29T12:08:47;1.00;;;0.60;;
38937;SDS011;24727;51.974;20.868;2024-03-29T12:11:14;1.05;;;0.35;;
38937;SDS011;24727;51.974;20.868;2024-03-29T12:13:40;1.60;;;0.68;;
38937;SDS011;24727;51.974;20.868;2024-03-29T12:16:06;1.17;;;0.60;;
38937;SDS011;24727;51.974;20.868;2024-03-29T12:18:33;1.65;;;0.90;;
38937;SDS011;24727;51.974;20.868;2024-03-29T12:21:00;1.73;;;0.82;;
38937;SDS011;24727;51.974;20.868;2024-03-29T12:23:26;1.55;;;0.52;;
38937;SDS011;24727;51.974;20.868;2024-03-29T12:25:56;1.95;;;0.70;;
38937;SDS011;24727;51.974;20.868;2024-03-29T12:28:24;5.35;;;0.73;;
38937;SDS011;24727;51.974;20.868;2024-03-29T12:30:50;2.33;;;0.75;;
38937;SDS011;24727;51.974;20.868;2024-03-29T12:33:18;5.22;;;1.00;;
38937;SDS011;24727;51.974;20.868;2024-03-29T12:35:48;4.18;;;1.20;;
38937;SDS011;24727;51.974;20.868;2024-03-29T12:38:17;1.38;;;0.77;;
38937;SDS011;24727;51.974;20.868;2024-03-29T12:40:44;1.13;;;0.73;;
38937;SDS011;24727;51.974;20.868;2024-03-29T12:43:13;2.22;;;1.00;;
38937;SDS011;24727;51.974;20.868;2024-03-29T12:45:42;2.70;;;0.88;;
38937;SDS011;24727;51.974;20.868;2024-03-29T12:48:09;2.38;;;1.48;;
38937;SDS011;24727;51.974;20.868;2024-03-29T12:50:41;2.50;;;0.80;;
38937;SDS011;24727;51.974;20.868;2024-03-29T12:53:09;1.20;;;0.70;;
38937;SDS011;24727;51.974;20.868;2024-03-29T12:55:37;1.15;;;0.70;;
38937;SDS011;24727;51.974;20.868;2024-03-29T12:58:10;1.77;;;0.80;;
38937;SDS011;24727;51.974;20.868;2024-03-29T13:00:37;1.75;;;0.50;;
38937;SDS011;24727;51.974;20.868;2024-03-29T13:03:04;3.38;;;0.40;;
38937;SDS011;24727;51.974;20.868;2024-03-29T13:05:31;2.42;;;0.60;;
38937;SDS011;24727;51.974;20.868;2024-03-29T13:08:02;1.15;;;0.60;;
38937;SDS011;24727;51.974;20.868;2024-03-29T13:10:29;1.50;;;0.57;;
38937;SDS011;24727;51.974;20.868;2024-03-29T13:12:56;2.28;;;0.57;;
38937;SDS011;24727;51.974;20.868;2024-03-29T13:15:22;3.67;;;1.00;;
38937;SDS011;24727;51.974;20.868;2024-03-29T13:17:53;2.88;;;0.60;;
38937;SDS011;24727;51.974;20.868;2024-03-29T13:20:20;3.15;;;0.60;;
38937;SDS011;24727;51.974;20.868;2024-03-29T13:22:48;2.05;;;0.60;;
38937;SDS011;24727;51.974;20.868;2024-03-29T13:25:21;3.30;;;0.80;;
38937;SDS011;24727;51.974;20.868;2024-03-29T13:27:48;1.73;;;0.60;;
38937;SDS011;24727;51.974;20.868;2024-03-29T13:30:20;1.98;;;0.68;;
38937;SDS011;24727;51.974;20.868;2024-03-29T13:32:47;2.30;;;0.95;;
38937;SDS011;24727;51.974;20.868;2024-03-29T13:35:14;1.00;;;0.38;;
38937;SDS011;24727;51.974;20.868;2024-03-29T13:37:43;1.15;;;0.50;;
38937;SDS011;24727;51.974;20.868;2024-03-29T13:40:13;3.55;;;0.63;;
38937;SDS011;24727;51.974;20.868;2024-03-29T13:42:46;0.85;;;0.40;;
38937;SDS011;24727;51.974;20.868;2024-03-29T13:45:14;2.20;;;0.80;;
38937;SDS011;24727;51.974;20.868;2024-03-29T13:47:41;1.70;;;0.57;;
38937;SDS011;24727;51.974;20.868;2024-03-29T13:50:08;1.50;;;0.50;;
38937;SDS011;24727;51.974;20.868;2024-03-29T13:52:35;2.03;;;0.60;;
38937;SDS011;24727;51.974;20.868;2024-03-29T13:55:02;3.47;;;0.90;;
38937;SDS011;24727;51.974;20.868;2024-03-29T13:57:29;1.52;;;0.73;;
38937;SDS011;24727;51.974;20.868;2024-03-29T13:59:56;1.63;;;0.50;;
38937;SDS011;24727;51.974;20.868;2024-03-29T14:02:25;2.08;;;0.77;;
38937;SDS011;24727;51.974;20.868;2024-03-29T14:04:53;1.83;;;0.63;;
38937;SDS011;24727;51.974;20.868;2024-03-29T14:07:20;2.58;;;0.50;;
38937;SDS011;24727;51.974;20.868;2024-03-29T14:09:46;3.30;;;0.60;;
38937;SDS011;24727;51.974;20.868;2024-03-29T14:12:12;2.40;;;0.50;;
38937;SDS011;24727;51.974;20.868;2024-03-29T14:14:39;4.20;;;0.80;;
38937;SDS011;24727;51.974;20.868;2024-03-29T14:17:12;3.35;;;0.60;;
38937;SDS011;24727;51.974;20.868;2024-03-29T14:19:38;2.20;;;0.80;;
38937;SDS011;24727;51.974;20.868;2024-03-29T14:22:05;2.35;;;0.65;;
38937;SDS011;24727;51.974;20.868;2024-03-29T14:24:32;2.13;;;0.63;;
38937;SDS011;24727;51.974;20.868;2024-03-29T14:27:01;1.63;;;0.40;;
38937;SDS011;24727;51.974;20.868;2024-03-29T14:29:33;1.65;;;0.90;;
38937;SDS011;24727;51.974;20.868;2024-03-29T14:32:00;1.98;;;0.73;;
38937;SDS011;24727;51.974;20.868;2024-03-29T14:34:27;1.35;;;0.63;;
38937;SDS011;24727;51.974;20.868;2024-03-29T14:36:56;1.30;;;0.60;;
38937;SDS011;24727;51.974;20.868;2024-03-29T14:39:22;2.15;;;0.57;;
38937;SDS011;24727;51.974;20.868;2024-03-29T14:41:48;1.67;;;0.80;;
38937;SDS011;24727;51.974;20.868;2024-03-29T14:44:17;0.93;;;0.60;;
38937;SDS011;24727;51.974;20.868;2024-03-29T14:46:45;2.30;;;0.73;;
38937;SDS011;24727;51.974;20.868;2024-03-29T14:49:12;2.95;;;0.70;;
38937;SDS011;24727;51.974;20.868;2024-03-29T14:51:39;2.45;;;0.85;;
38937;SDS011;24727;51.974;20.868;2024-03-29T14:54:06;2.60;;;0.70;;
38937;SDS011;24727;51.974;20.868;2024-03-29T14:56:32;1.75;;;0.80;;
38937;SDS011;24727;51.974;20.868;2024-03-29T14:59:02;4.15;;;1.20;;